Time;durP1;ratioP1;P1;durP2;ratioP2;P2;SDS_P1;SDS_P2;PMS_P1;PMS_P2;Temp;Humidity;BMP_temperature;BMP_pressure;BME280_temperature;BME280_humidity;BME280_pressure;Samples;Min_cycle;Max_cycle;Signal;HPM_P1;HPM_P2
2023/04/27 00:01:29;;;;;;;13.18;3.88;;;;;;;-144.73;100.00;54424.13;5031030;28;20044;-72
2023/04/27 00:03:55;;;;;;;23.80;5.03;;;;;;;-144.73;100.00;54395.38;5028919;28;20037;-69
2023/04/27 00:06:20;;;;;;;18.27;3.63;;;;;;;-144.73;100.00;54407.69;5013215;28;20034;-69
2023/04/27 00:08:46;;;;;;;19.35;4.93;;;;;;;-144.73;100.00;54430.28;5029497;28;20080;-70
2023/04/27 00:11:11;;;;;;;15.05;4.43;;;;;;;-144.73;100.00;54378.97;5028707;28;20034;-70
2023/04/27 00:13:36;;;;;;;13.75;4.38;;;;;;;-144.73;100.00;54407.69;5013339;28;20033;-69
2023/04/27 00:16:02;;;;;;;25.00;4.25;;;;;;;-144.73;100.00;54420.00;5029202;28;20033;-70
2023/04/27 00:18:29;;;;;;;21.67;4.15;;;;;;;-144.73;100.00;54415.91;5012703;28;20021;-70
2023/04/27 00:20:55;;;;;;;22.85;3.80;;;;;;;-144.73;100.00;54417.97;5026588;28;20041;-69
2023/04/27 00:23:20;;;;;;;15.60;4.25;;;;;;;-144.73;100.00;54378.97;5028819;28;20033;-69
2023/04/27 00:25:46;;;;;;;16.02;5.18;;;;;;;-144.73;100.00;54424.13;5012784;28;20033;-69
2023/04/27 00:28:11;;;;;;;15.20;3.95;;;;;;;-144.73;100.00;54432.31;5029459;28;20029;-70
2023/04/27 00:30:37;;;;;;;17.23;3.70;;;;;;;-144.73;100.00;54436.44;5028712;28;20041;-70
2023/04/27 00:33:02;;;;;;;14.93;4.65;;;;;;;-144.73;100.00;54469.28;5030533;28;20021;-69
2023/04/27 00:35:28;;;;;;;18.23;4.35;;;;;;;-144.73;100.00;54436.44;5029044;28;20029;-70
2023/04/27 00:37:54;;;;;;;21.95;4.57;;;;;;;-144.73;100.00;54383.06;5030279;28;20027;-69
2023/04/27 00:40:20;;;;;;;13.73;4.05;;;;;;;-144.73;100.00;54415.91;5012269;28;20109;-70
2023/04/27 00:42:45;;;;;;;12.65;4.22;;;;;;;-144.73;100.00;54415.91;5012814;28;20021;-70
2023/04/27 00:45:12;;;;;;;8.88;3.80;;;;;;;-144.73;100.00;54395.38;5012908;28;20034;-70
2023/04/27 00:47:37;;;;;;;17.13;4.35;;;;;;;-144.73;100.00;54415.91;5012819;28;20112;-70
2023/04/27 00:50:07;;;;;;;17.42;4.60;;;;;;;-144.73;100.00;54420.00;5010276;28;20121;-70
2023/04/27 00:52:33;;;;;;;17.02;3.70;;;;;;;-144.73;100.00;54438.50;5030377;28;20017;-70
2023/04/27 00:55:02;;;;;;;19.73;4.13;;;;;;;-144.73;100.00;54407.69;5029247;28;20567;-70
2023/04/27 00:57:28;;;;;;;16.27;4.53;;;;;;;-144.73;100.00;54456.97;5030179;28;20030;-69
2023/04/27 00:59:53;;;;;;;14.38;3.97;;;;;;;-144.73;100.00;54426.16;5029945;28;20033;-70
2023/04/27 01:02:18;;;;;;;21.25;4.10;;;;;;;-144.73;100.00;54424.13;5012986;28;20076;-70
2023/04/27 01:04:44;;;;;;;14.10;4.45;;;;;;;-144.73;100.00;54436.44;5029836;28;20029;-70
2023/04/27 01:07:09;;;;;;;19.17;4.63;;;;;;;-144.73;100.00;54440.53;5029692;28;20221;-70
2023/04/27 01:09:35;;;;;;;19.23;4.35;;;;;;;-144.73;100.00;54430.28;5011575;28;20037;-69
2023/04/27 01:12:02;;;;;;;17.95;4.13;;;;;;;-144.73;100.00;54444.66;5027048;28;20028;-70
2023/04/27 01:14:27;;;;;;;15.50;4.35;;;;;;;-144.73;100.00;54436.44;5029427;28;20451;-70
2023/04/27 01:16:52;;;;;;;23.45;4.25;;;;;;;-144.73;100.00;54440.53;5015019;28;20097;-70
2023/04/27 01:19:18;;;;;;;12.20;4.93;;;;;;;-144.73;100.00;54461.06;5026371;28;20056;-70
2023/04/27 01:21:43;;;;;;;17.35;4.85;;;;;;;-144.73;100.00;54448.75;5028944;28;20025;-69
2023/04/27 01:24:09;;;;;;;12.30;4.45;;;;;;;-144.73;100.00;54409.75;5028599;28;20056;-70
2023/04/27 01:26:34;;;;;;;19.52;4.68;;;;;;;-144.73;100.00;54378.97;5009664;28;20025;-70
2023/04/27 01:29:00;;;;;;;21.50;4.60;;;;;;;-144.73;100.00;54436.44;5028770;28;20017;-70
2023/04/27 01:31:25;;;;;;;12.80;4.25;;;;;;;-144.73;100.00;54448.75;5011514;28;20033;-70
2023/04/27 01:33:51;;;;;;;17.08;4.32;;;;;;;-144.73;100.00;54411.81;5011590;28;20025;-70
2023/04/27 01:36:16;;;;;;;10.90;5.53;;;;;;;-144.73;100.00;54407.69;5012345;28;20084;-71
2023/04/27 01:38:42;;;;;;;17.38;4.68;;;;;;;-144.73;100.00;54407.69;5016020;28;20387;-70
2023/04/27 01:41:08;;;;;;;17.85;5.38;;;;;;;-144.73;100.00;54407.69;5011691;28;20030;-70
2023/04/27 01:43:35;;;;;;;10.63;4.47;;;;;;;-144.73;100.00;54436.44;5030132;28;20021;-70
2023/04/27 01:46:08;;;;;;;16.85;5.60;;;;;;;-144.73;100.00;54424.13;5008636;28;20030;-70
2023/04/27 01:48:34;;;;;;;14.40;5.32;;;;;;;-144.73;100.00;54420.00;5030306;28;20060;-69
2023/04/27 01:50:59;;;;;;;25.33;5.43;;;;;;;-144.73;100.00;54383.06;5010982;28;20480;-69
2023/04/27 01:53:25;;;;;;;18.88;5.22;;;;;;;-144.73;100.00;54420.00;5034296;28;20113;-69
2023/04/27 01:55:50;;;;;;;18.65;5.30;;;;;;;-144.73;100.00;54444.66;5029406;28;20282;-68
2023/04/27 01:58:15;;;;;;;19.48;5.72;;;;;;;-144.73;100.00;54356.38;5025625;28;20022;-69
2023/04/27 02:00:41;;;;;;;19.70;5.47;;;;;;;-144.73;100.00;54383.06;5027454;28;20040;-68
2023/04/27 02:03:06;;;;;;;18.98;5.10;;;;;;;-144.73;100.00;54430.28;5031234;28;20164;-69
2023/04/27 02:05:31;;;;;;;20.98;5.47;;;;;;;-144.73;100.00;54452.84;5029834;28;20034;-68
2023/04/27 02:07:57;;;;;;;14.32;5.82;;;;;;;-144.73;100.00;54407.69;5013125;28;20026;-69
2023/04/27 02:10:22;;;;;;;22.85;4.82;;;;;;;-144.73;100.00;54411.81;5015244;28;20026;-69
2023/04/27 02:12:47;;;;;;;11.38;4.43;;;;;;;-144.73;100.00;54444.66;5030923;28;20013;-69
2023/04/27 02:15:13;;;;;;;21.15;5.50;;;;;;;-144.73;100.00;54413.84;5032540;28;20037;-69
2023/04/27 02:17:38;;;;;;;21.73;4.90;;;;;;;-144.73;100.00;54391.28;5015391;28;20017;-70
2023/04/27 02:20:05;;;;;;;14.52;4.85;;;;;;;-144.73;100.00;54432.31;5015069;28;20492;-68
2023/04/27 02:22:31;;;;;;;12.18;5.30;;;;;;;-144.73;100.00;54436.44;5031919;28;20028;-69
2023/04/27 02:24:56;;;;;;;15.02;4.60;;;;;;;-144.73;100.00;54428.22;5030759;28;20029;-69
2023/04/27 02:27:22;;;;;;;14.65;5.05;;;;;;;-144.73;100.00;54444.66;5033560;28;20017;-69
2023/04/27 02:29:47;;;;;;;15.05;4.72;;;;;;;-144.73;100.00;54432.31;5030882;28;20030;-69
2023/04/27 02:32:13;;;;;;;13.10;4.22;;;;;;;-144.73;100.00;54448.75;5015209;28;20559;-68
2023/04/27 02:34:38;;;;;;;12.52;4.60;;;;;;;-144.73;100.00;54436.44;5031119;28;20033;-69
2023/04/27 02:37:07;;;;;;;21.25;5.57;;;;;;;-144.73;100.00;54426.16;5031592;28;20034;-69
2023/04/27 02:39:32;;;;;;;17.00;4.70;;;;;;;-144.73;100.00;54456.97;5028569;28;20155;-69
2023/04/27 02:41:57;;;;;;;16.58;4.30;;;;;;;-144.73;100.00;54424.13;5031519;28;20084;-69
2023/04/27 02:44:23;;;;;;;14.35;4.00;;;;;;;-144.73;100.00;54399.50;5031001;28;20045;-69
2023/04/27 02:46:49;;;;;;;14.18;4.55;;;;;;;-144.73;100.00;54420.00;5015014;28;20038;-69
2023/04/27 02:49:15;;;;;;;14.32;4.60;;;;;;;-144.73;100.00;54407.69;5027868;28;20107;-69
2023/04/27 02:51:40;;;;;;;9.50;4.57;;;;;;;-144.73;100.00;54426.16;5030205;28;20049;-69
2023/04/27 02:54:06;;;;;;;19.75;5.25;;;;;;;-144.73;100.00;54424.13;5030499;28;20104;-69
2023/04/27 02:56:31;;;;;;;16.48;4.60;;;;;;;-144.73;100.00;54409.75;5028862;28;20029;-69
2023/04/27 02:58:56;;;;;;;12.60;4.20;;;;;;;-144.73;100.00;54415.91;5027664;28;20034;-69
2023/04/27 03:01:22;;;;;;;14.07;4.80;;;;;;;-144.73;100.00;54407.69;5031340;28;20033;-69
2023/04/27 03:03:47;;;;;;;16.65;4.80;;;;;;;-144.73;100.00;54411.81;5032174;28;20018;-69
2023/04/27 03:06:13;;;;;;;12.40;4.60;;;;;;;-144.73;100.00;54428.22;5031481;28;20037;-69
2023/04/27 03:08:38;;;;;;;19.08;4.65;;;;;;;-144.73;100.00;54391.28;5027403;28;20017;-69
2023/04/27 03:11:04;;;;;;;18.80;5.15;;;;;;;-144.73;100.00;54434.38;5012146;28;20044;-69
2023/04/27 03:13:30;;;;;;;10.27;4.38;;;;;;;-144.73;100.00;54420.00;5009892;28;20047;-68
2023/04/27 03:15:55;;;;;;;14.13;5.35;;;;;;;-144.73;100.00;54422.06;5031090;28;20044;-69
2023/04/27 03:18:21;;;;;;;12.55;4.75;;;;;;;-144.73;100.00;54477.47;5013949;28;20026;-69
2023/04/27 03:20:46;;;;;;;13.77;4.60;;;;;;;-144.73;100.00;54428.22;5022832;28;20034;-69
2023/04/27 03:23:12;;;;;;;13.07;4.53;;;;;;;-144.73;100.00;54407.69;5001044;28;20147;-69
2023/04/27 03:25:37;;;;;;;16.63;5.50;;;;;;;-144.73;100.00;54411.81;5012252;28;20026;-69
2023/04/27 03:28:03;;;;;;;12.88;4.57;;;;;;;-144.73;100.00;54399.50;5012441;28;20030;-69
2023/04/27 03:30:28;;;;;;;10.15;4.32;;;;;;;-144.73;100.00;54424.13;5029894;28;20033;-69
2023/04/27 03:32:53;;;;;;;11.50;4.90;;;;;;;-144.73;100.00;54456.97;5014433;28;20049;-69
2023/04/27 03:35:19;;;;;;;12.25;4.72;;;;;;;-144.73;100.00;54407.69;5013494;28;20040;-69
2023/04/27 03:37:45;;;;;;;14.77;4.85;;;;;;;-144.73;100.00;54432.31;5031836;28;20488;-70
2023/04/27 03:40:11;;;;;;;8.85;4.47;;;;;;;-144.73;100.00;54391.28;5030702;28;20116;-70
2023/04/27 03:42:36;;;;;;;15.48;4.00;;;;;;;-144.73;100.00;54436.44;5031811;28;20026;-69
2023/04/27 03:45:02;;;;;;;16.48;5.30;;;;;;;-144.73;100.00;54424.13;5013510;28;20137;-69
2023/04/27 03:47:28;;;;;;;21.30;4.72;;;;;;;-144.73;100.00;54436.44;5017346;28;20025;-69
2023/04/27 03:49:53;;;;;;;13.77;4.75;;;;;;;-144.73;100.00;54407.69;5029227;28;20040;-70
2023/04/27 03:52:19;;;;;;;11.40;4.18;;;;;;;-144.73;100.00;54424.13;5030416;28;20055;-70
2023/04/27 03:54:44;;;;;;;14.18;4.25;;;;;;;-144.73;100.00;54432.31;5030893;28;20036;-70
2023/04/27 03:57:09;;;;;;;20.80;5.15;;;;;;;-144.73;100.00;54452.84;5029986;28;20056;-69
2023/04/27 03:59:35;;;;;;;18.85;4.95;;;;;;;-144.73;100.00;54413.84;5014193;28;20528;-69
2023/04/27 04:02:01;;;;;;;16.42;5.13;;;;;;;-144.73;100.00;54456.97;5031372;28;20041;-69
2023/04/27 04:04:26;;;;;;;14.43;4.45;;;;;;;-144.73;100.00;54411.81;5031285;28;20033;-69
2023/04/27 04:06:51;;;;;;;14.18;4.95;;;;;;;-144.73;100.00;54426.16;5029845;28;20029;-69
2023/04/27 04:09:16;;;;;;;16.23;5.50;;;;;;;-144.73;100.00;54440.53;5026362;28;20033;-69
2023/04/27 04:11:42;;;;;;;20.25;5.75;;;;;;;-144.73;100.00;54420.00;5030092;28;20423;-69
2023/04/27 04:14:07;;;;;;;12.95;5.43;;;;;;;-144.73;100.00;54424.13;5011081;28;20476;-68
2023/04/27 04:16:33;;;;;;;14.68;6.32;;;;;;;-144.73;100.00;54415.91;5029732;28;20535;-69
2023/04/27 04:18:58;;;;;;;19.27;5.65;;;;;;;-144.73;100.00;54440.53;5030828;28;20108;-70
2023/04/27 04:21:23;;;;;;;20.45;5.28;;;;;;;-144.73;100.00;54440.53;5030324;28;20416;-70
2023/04/27 04:23:49;;;;;;;18.20;5.78;;;;;;;-144.73;100.00;54428.22;5030204;28;20036;-70
2023/04/27 04:26:15;;;;;;;20.30;6.15;;;;;;;-144.73;100.00;54444.66;5011439;28;20045;-70
2023/04/27 04:28:41;;;;;;;20.58;6.28;;;;;;;-144.73;100.00;54411.81;5028770;28;20021;-73
2023/04/27 04:31:08;;;;;;;19.52;6.75;;;;;;;-144.73;100.00;54411.81;5010452;28;20033;-70
2023/04/27 04:33:33;;;;;;;16.08;6.38;;;;;;;-144.73;100.00;54407.69;5030985;28;20049;-69
2023/04/27 04:36:02;;;;;;;21.27;6.53;;;;;;;-144.73;100.00;54420.00;5028564;28;20041;-69
2023/04/27 04:38:28;;;;;;;12.35;5.22;;;;;;;-144.73;100.00;54424.13;5029598;28;20025;-69
2023/04/27 04:40:53;;;;;;;20.77;6.60;;;;;;;-144.73;100.00;54428.22;5029857;28;20041;-69
2023/04/27 04:43:18;;;;;;;17.08;6.45;;;;;;;-144.73;100.00;54461.06;5030588;28;20056;-68
2023/04/27 04:45:44;;;;;;;13.85;6.93;;;;;;;-144.73;100.00;54387.19;5012799;28;20037;-70
2023/04/27 04:48:10;;;;;;;20.73;6.43;;;;;;;-144.73;100.00;54448.75;5027302;28;20369;-70
2023/04/27 04:50:35;;;;;;;24.45;7.25;;;;;;;-144.73;100.00;54387.19;5017779;28;20045;-70
2023/04/27 04:53:01;;;;;;;14.25;6.55;;;;;;;-144.73;100.00;54415.91;5010393;28;20029;-69
2023/04/27 04:55:27;;;;;;;15.55;5.93;;;;;;;-144.73;100.00;54459.00;5030316;28;20044;-70
2023/04/27 04:57:52;;;;;;;19.17;5.85;;;;;;;-144.73;100.00;54407.69;5016330;28;20041;-70
2023/04/27 05:00:18;;;;;;;20.30;6.75;;;;;;;-144.73;100.00;54461.06;5029264;28;20044;-70
2023/04/27 05:02:43;;;;;;;18.45;5.55;;;;;;;-144.73;100.00;54389.22;5012340;28;20024;-70
2023/04/27 05:05:08;;;;;;;19.25;6.60;;;;;;;-144.73;100.00;54422.06;5024788;28;20053;-70
2023/04/27 05:07:34;;;;;;;23.38;6.72;;;;;;;-144.73;100.00;54436.44;5029719;28;20587;-70
2023/04/27 05:10:00;;;;;;;16.05;6.60;;;;;;;-144.73;100.00;54395.38;5027939;28;20041;-70
2023/04/27 05:12:25;;;;;;;15.82;6.88;;;;;;;-144.73;100.00;54407.69;5029020;28;20025;-70
2023/04/27 05:14:51;;;;;;;20.70;7.28;;;;;;;-144.73;100.00;54415.91;5014564;28;20099;-69
2023/04/27 05:17:16;;;;;;;30.75;8.70;;;;;;;-144.73;100.00;54428.22;5027675;28;20036;-70
2023/04/27 05:19:42;;;;;;;14.52;6.63;;;;;;;-144.73;100.00;54473.38;5029640;28;20037;-70
2023/04/27 05:22:07;;;;;;;19.85;7.70;;;;;;;-144.73;100.00;54436.44;5012225;28;20025;-70
2023/04/27 05:24:33;;;;;;;23.98;7.30;;;;;;;-144.73;100.00;54420.00;5029257;28;20033;-70
2023/04/27 05:26:58;;;;;;;20.70;6.85;;;;;;;-144.73;100.00;54420.00;5028868;28;20113;-70
2023/04/27 05:29:23;;;;;;;18.55;7.63;;;;;;;-144.73;100.00;54411.81;5028807;28;20033;-70
2023/04/27 05:31:49;;;;;;;13.95;7.05;;;;;;;-144.73;100.00;54444.66;5029123;28;20029;-70
2023/04/27 05:34:14;;;;;;;25.15;7.07;;;;;;;-144.73;100.00;54383.06;5028021;28;20029;-71
2023/04/27 05:36:40;;;;;;;18.25;7.03;;;;;;;-144.73;100.00;54452.84;5014251;28;20036;-71
2023/04/27 05:39:06;;;;;;;23.15;7.10;;;;;;;-144.73;100.00;54479.53;5030852;28;20105;-68
2023/04/27 05:41:31;;;;;;;22.35;6.40;;;;;;;-144.73;100.00;54376.91;5031580;28;20041;-69
2023/04/27 05:43:57;;;;;;;14.15;6.10;;;;;;;-144.73;100.00;54461.06;5015939;28;20117;-69
2023/04/27 05:46:22;;;;;;;20.63;6.57;;;;;;;-144.73;100.00;54444.66;5015498;28;20120;-70
2023/04/27 05:48:47;;;;;;;30.95;7.78;;;;;;;-144.73;100.00;54434.38;5032616;28;20112;-70
2023/04/27 05:51:13;;;;;;;24.65;6.72;;;;;;;-144.73;100.00;54436.44;5032531;28;20044;-70
2023/04/27 05:53:38;;;;;;;25.13;6.95;;;;;;;-144.73;100.00;54440.53;5033654;28;20161;-69
2023/04/27 05:56:05;;;;;;;26.52;6.45;;;;;;;-144.73;100.00;54424.13;5033431;28;20037;-69
2023/04/27 05:58:32;;;;;;;21.77;6.25;;;;;;;-144.73;100.00;54411.81;5015890;28;20034;-70
2023/04/27 06:00:58;;;;;;;19.92;6.10;;;;;;;-144.73;100.00;54420.00;5015170;28;20041;-69
2023/04/27 06:03:23;;;;;;;14.60;6.05;;;;;;;-144.73;100.00;54424.13;5015676;28;20021;-69
2023/04/27 06:05:56;;;;;;;16.83;6.80;;;;;;;-144.73;100.00;54436.44;5031456;28;20423;-69
2023/04/27 06:08:22;;;;;;;16.88;5.85;;;;;;;-144.73;100.00;54436.44;5015590;28;20047;-69
2023/04/27 06:10:49;;;;;;;16.70;6.20;;;;;;;-144.73;100.00;54456.97;5014563;28;20035;-69
2023/04/27 06:13:15;;;;;;;13.27;5.70;;;;;;;-144.73;100.00;54411.81;5014835;28;20030;-69
2023/04/27 06:15:40;;;;;;;16.48;5.50;;;;;;;-144.73;100.00;54436.44;5012723;28;20038;-70
2023/04/27 06:18:05;;;;;;;11.68;5.70;;;;;;;-144.73;100.00;54428.22;5031249;28;20029;-69
2023/04/27 06:20:31;;;;;;;23.65;5.68;;;;;;;-144.73;100.00;54477.47;5017735;28;20041;-69
2023/04/27 06:22:57;;;;;;;15.82;5.68;;;;;;;-144.73;100.00;54415.91;5031385;28;20112;-69
2023/04/27 06:25:22;;;;;;;21.25;6.03;;;;;;;-144.73;100.00;54407.69;5032123;28;20136;-69
2023/04/27 06:27:47;;;;;;;19.55;5.22;;;;;;;-144.73;100.00;54395.38;5015510;28;20068;-72
2023/04/27 06:30:13;;;;;;;25.30;6.93;;;;;;;-144.73;100.00;54420.00;5014222;28;20045;-72
2023/04/27 06:32:38;;;;;;;12.98;5.45;;;;;;;-144.73;100.00;54428.22;5014974;28;20021;-72
2023/04/27 06:35:04;;;;;;;17.33;5.57;;;;;;;-144.73;100.00;54454.91;5013967;28;20112;-72
2023/04/27 06:37:30;;;;;;;17.95;6.45;;;;;;;-144.73;100.00;54428.22;5025063;28;20069;-72
2023/04/27 06:39:55;;;;;;;20.13;5.68;;;;;;;-144.73;100.00;54448.75;5014371;28;20048;-72
2023/04/27 06:42:21;;;;;;;16.92;5.50;;;;;;;-144.73;100.00;54428.22;5014866;28;20037;-72
2023/04/27 06:44:46;;;;;;;10.77;4.97;;;;;;;-144.73;100.00;54491.84;5031943;28;20029;-72
2023/04/27 06:47:12;;;;;;;16.30;5.68;;;;;;;-144.73;100.00;54415.91;5029761;28;20133;-72
2023/04/27 06:49:37;;;;;;;9.05;4.85;;;;;;;-144.73;100.00;54415.91;4999779;28;20065;-72
2023/04/27 06:52:04;;;;;;;15.88;4.50;;;;;;;-144.73;100.00;54407.69;5013763;28;20036;-72
2023/04/27 06:54:29;;;;;;;12.75;4.65;;;;;;;-144.73;100.00;54452.84;5006089;28;20038;-72
2023/04/27 06:56:55;;;;;;;13.00;5.25;;;;;;;-144.73;100.00;54440.53;5004018;28;20036;-71
2023/04/27 06:59:20;;;;;;;12.60;4.80;;;;;;;-144.73;100.00;54442.59;5008578;28;20025;-72
2023/04/27 07:01:46;;;;;;;16.83;5.53;;;;;;;-144.73;100.00;54415.91;5021982;28;20026;-72
2023/04/27 07:04:11;;;;;;;12.88;4.55;;;;;;;-144.73;100.00;54469.28;5023496;28;20037;-72
2023/04/27 07:06:36;;;;;;;17.40;4.93;;;;;;;-144.73;100.00;54461.06;5027012;28;20044;-72
2023/04/27 07:09:04;;;;;;;17.67;4.95;;;;;;;-144.73;100.00;54415.91;5008004;28;20037;-72
2023/04/27 07:11:30;;;;;;;9.05;4.43;;;;;;;-144.73;97.98;54461.06;5026018;28;20084;-72
2023/04/27 07:13:55;;;;;;;15.48;5.05;;;;;;;-144.73;96.66;54407.69;5024930;28;20033;-72
2023/04/27 07:16:20;;;;;;;24.38;5.07;;;;;;;-144.73;98.08;54415.91;5023777;28;20623;-72
2023/04/27 07:18:46;;;;;;;13.98;4.07;;;;;;;-144.73;99.54;54442.59;5025282;28;20031;-72
2023/04/27 07:21:11;;;;;;;13.85;4.50;;;;;;;-144.73;98.56;54415.91;5023125;28;20108;-72
2023/04/27 07:23:38;;;;;;;18.10;4.68;;;;;;;-144.73;99.44;54436.44;5013864;28;20037;-72
2023/04/27 07:26:03;;;;;;;24.00;4.63;;;;;;;-144.73;98.17;54420.00;5023704;28;20068;-72
2023/04/27 07:28:29;;;;;;;28.98;6.07;;;;;;;-144.73;96.63;54438.50;5011078;28;20041;-70
2023/04/27 07:30:54;;;;;;;16.90;4.70;;;;;;;-144.73;93.85;54444.66;5019016;28;20041;-72
2023/04/27 07:33:21;;;;;;;14.65;3.35;;;;;;;-144.73;91.61;54383.06;5027227;28;20120;-72
2023/04/27 07:35:47;;;;;;;7.80;3.13;;;;;;;-144.73;88.00;54387.19;5015902;28;20037;-72
2023/04/27 07:38:12;;;;;;;12.48;3.42;;;;;;;-144.73;86.57;54444.66;5025000;28;20059;-72
2023/04/27 07:40:37;;;;;;;9.88;2.63;;;;;;;-144.73;81.17;54411.81;5026768;28;20037;-73
2023/04/27 07:43:03;;;;;;;16.90;3.33;;;;;;;-144.73;82.93;54436.44;5009382;28;20025;-73
2023/04/27 07:45:32;;;;;;;19.05;3.17;;;;;;;-144.73;84.40;54411.81;5026048;28;20041;-71
2023/04/27 07:47:59;;;;;;;15.98;3.63;;;;;;;-144.73;83.55;54411.81;5020179;28;20561;-71
2023/04/27 07:50:28;;;;;;;11.63;2.45;;;;;;;-144.73;83.00;54417.97;5021279;28;20048;-71
2023/04/27 07:52:54;;;;;;;12.82;2.75;;;;;;;-144.73;84.32;54452.84;5008354;28;20025;-72
2023/04/27 07:55:22;;;;;;;16.35;3.67;;;;;;;-144.73;83.65;54358.44;5007159;28;20045;-72
2023/04/27 07:57:51;;;;;;;15.82;3.35;;;;;;;-144.73;82.56;54428.22;5024216;28;20033;-72
2023/04/27 08:00:16;;;;;;;11.82;3.53;;;;;;;-144.73;83.50;54481.59;5004313;28;20184;-72
2023/04/27 08:02:42;;;;;;;16.33;4.00;;;;;;;-144.73;86.83;54448.75;5025482;28;20088;-72
2023/04/27 08:05:09;;;;;;;13.07;3.70;;;;;;;-144.73;87.31;54432.31;5020127;28;20045;-72
2023/04/27 08:07:34;;;;;;;6.72;2.25;;;;;;;-144.73;86.45;54415.91;5008962;28;20043;-72
2023/04/27 08:10:00;;;;;;;10.63;2.58;;;;;;;-144.73;84.85;54436.44;5025685;28;20042;-72
2023/04/27 08:12:25;;;;;;;13.85;2.97;;;;;;;-144.73;84.56;54420.00;5022118;28;20033;-71
2023/04/27 08:14:51;;;;;;;19.77;3.60;;;;;;;-144.73;84.06;54374.84;5005770;28;20045;-72
2023/04/27 08:17:17;;;;;;;11.45;2.97;;;;;;;-144.73;82.45;54354.34;5024064;28;20025;-72
2023/04/27 08:19:42;;;;;;;9.23;2.70;;;;;;;-144.73;76.61;54436.44;5007226;28;20128;-72
2023/04/27 08:22:08;;;;;;;8.63;2.60;;;;;;;-144.73;76.17;54354.34;5026033;28;20042;-72
2023/04/27 08:24:33;;;;;;;10.57;2.70;;;;;;;-144.73;77.76;54415.91;5024511;28;20033;-73
2023/04/27 08:26:58;;;;;;;5.00;2.28;;;;;;;-144.73;77.36;54378.97;5023891;28;20028;-71
2023/04/27 08:29:24;;;;;;;6.40;2.70;;;;;;;-144.73;75.68;54391.28;5023166;28;20547;-73
2023/04/27 08:31:50;;;;;;;9.80;2.83;;;;;;;-144.73;76.15;54417.97;5008205;28;20039;-72
2023/04/27 08:34:16;;;;;;;12.55;2.97;;;;;;;-144.73;78.28;54378.97;5007624;28;20028;-72
2023/04/27 08:36:41;;;;;;;8.38;3.25;;;;;;;-144.73;77.80;54358.44;5024377;28;20072;-72
2023/04/27 08:39:07;;;;;;;5.28;2.58;;;;;;;-144.73;76.63;54428.22;5023428;28;20401;-71
2023/04/27 08:41:33;;;;;;;12.25;3.03;;;;;;;-144.73;76.48;54444.66;5022540;28;20025;-72
2023/04/27 08:43:58;;;;;;;12.02;3.03;;;;;;;-144.73;77.71;54411.81;5018637;28;20025;-72
2023/04/27 08:46:27;;;;;;;9.10;2.67;;;;;;;-144.73;77.73;54424.13;5028097;28;20044;-72
2023/04/27 08:48:53;;;;;;;7.53;2.10;;;;;;;-144.73;74.24;54378.97;5005770;28;20041;-72
2023/04/27 08:51:20;;;;;;;10.82;2.30;;;;;;;-144.73;69.83;54374.84;5001541;28;20037;-72
2023/04/27 08:53:49;;;;;;;7.68;2.05;;;;;;;-144.73;69.38;54383.06;5022877;28;20061;-72
2023/04/27 08:56:15;;;;;;;7.72;1.98;;;;;;;-144.73;69.49;54383.06;5017934;28;20075;-72
2023/04/27 08:58:40;;;;;;;7.05;2.35;;;;;;;-144.73;67.84;54366.66;5023474;28;20025;-72
2023/04/27 09:01:07;;;;;;;8.90;2.35;;;;;;;-144.73;67.18;54456.97;5023529;28;20112;-72
2023/04/27 09:03:36;;;;;;;7.55;2.72;;;;;;;-144.73;66.66;54374.84;5006270;28;20032;-72
2023/04/27 09:06:04;;;;;;;12.80;2.78;;;;;;;-144.73;68.50;54411.81;5024472;28;20049;-72
2023/04/27 09:08:49;;;;;;;10.32;2.95;;;;;;;-144.73;67.38;54374.84;5003626;28;20029;-72
2023/04/27 09:11:28;;;;;;;7.18;2.60;;;;;;;-144.73;67.67;54407.69;5021605;28;20045;-72
2023/04/27 09:13:54;;;;;;;12.93;2.63;;;;;;;-144.73;66.72;54411.81;5005495;28;20109;-72
2023/04/27 09:16:25;;;;;;;8.05;2.53;;;;;;;-144.73;67.31;54407.69;5006693;28;20165;-73
2023/04/27 09:18:50;;;;;;;9.30;2.22;;;;;;;-144.73;65.07;54428.22;5006341;28;20088;-72
2023/04/27 09:21:26;;;;;;;8.40;2.28;;;;;;;-144.73;63.44;54391.28;5016943;28;20038;-72
2023/04/27 09:23:52;;;;;;;6.50;2.65;;;;;;;-144.73;63.45;54370.75;5006834;28;20051;-72
2023/04/27 09:26:23;;;;;;;10.27;2.58;;;;;;;-144.73;61.79;54395.38;5000300;28;20049;-72
2023/04/27 09:28:56;;;;;;;7.85;2.33;;;;;;;-144.73;60.13;54391.28;5003028;28;20033;-71
2023/04/27 09:31:29;;;;;;;6.63;2.20;;;;;;;-144.73;58.87;54407.69;5022211;28;20040;-72
2023/04/27 09:33:55;;;;;;;4.80;2.05;;;;;;;-144.73;57.14;54387.19;4999724;28;20158;-72
2023/04/27 09:36:21;;;;;;;6.18;1.92;;;;;;;-144.73;58.46;54387.19;5021326;28;20065;-72
2023/04/27 09:38:47;;;;;;;2.80;1.88;;;;;;;-144.73;57.35;54383.06;5006616;28;20585;-72
2023/04/27 09:41:13;;;;;;;9.93;2.58;;;;;;;-144.73;56.68;54383.06;5005991;28;20443;-72
2023/04/27 09:43:40;;;;;;;10.27;2.63;;;;;;;-144.73;56.01;54366.66;5007271;28;20045;-72
2023/04/27 09:46:05;;;;;;;6.40;2.58;;;;;;;-144.73;54.46;54366.66;5005806;28;20038;-72
2023/04/27 09:48:30;;;;;;;10.75;2.60;;;;;;;-144.73;58.57;54387.19;5022485;28;20033;-71
2023/04/27 09:50:56;;;;;;;11.63;2.60;;;;;;;-144.73;63.07;54381.00;5017314;28;20033;-73
2023/04/27 09:53:45;;;;;;;14.65;2.88;;;;;;;-144.73;66.02;54378.97;5018883;28;20025;-72
2023/04/27 09:56:32;;;;;;;8.40;2.80;;;;;;;-144.73;64.24;54354.34;5004348;28;20041;-72
2023/04/27 09:59:06;;;;;;;7.50;2.85;;;;;;;-144.73;60.06;54372.81;5007209;28;20029;-71
2023/04/27 10:01:42;;;;;;;8.20;2.42;;;;;;;-144.73;55.94;54378.97;5021917;28;20152;-71
2023/04/27 10:04:33;;;;;;;7.72;2.40;;;;;;;-144.73;53.05;54422.06;5022699;28;20044;-71
2023/04/27 10:07:03;;;;;;;7.68;2.83;;;;;;;-144.73;55.45;54415.91;5024957;28;20112;-71
2023/04/27 10:09:38;;;;;;;7.30;2.40;;;;;;;-144.73;57.88;54395.38;5004989;28;20092;-71
2023/04/27 10:12:18;;;;;;;6.03;2.33;;;;;;;-144.73;57.36;54374.84;5023920;28;20021;-71
2023/04/27 10:14:51;;;;;;;4.22;2.03;;;;;;;-144.73;54.97;54370.75;5022732;28;20033;-71
2023/04/27 10:17:18;;;;;;;6.25;2.28;;;;;;;-144.73;54.76;54411.81;5003529;28;20025;-71
2023/04/27 10:19:55;;;;;;;16.08;2.53;;;;;;;-144.73;55.20;54428.22;5023543;28;20151;-71
2023/04/27 10:22:20;;;;;;;5.55;2.03;;;;;;;-144.73;57.43;54389.22;5021503;28;20061;-71
2023/04/27 10:24:48;;;;;;;8.25;2.85;;;;;;;-144.73;60.29;54415.91;5003165;28;20057;-71
2023/04/27 10:27:21;;;;;;;14.43;2.88;;;;;;;-144.73;59.30;54424.13;5006667;28;20025;-71
2023/04/27 10:29:50;;;;;;;9.45;3.53;;;;;;;-144.73;56.18;54350.22;5020822;28;20163;-72
2023/04/27 10:32:23;;;;;;;9.80;2.22;;;;;;;-144.73;54.20;54387.19;5026906;28;20039;-72
2023/04/27 10:35:06;;;;;;;7.53;2.70;;;;;;;-144.73;55.71;54391.28;5008944;28;20030;-72
2023/04/27 10:37:42;;;;;;;6.68;2.50;;;;;;;-144.73;53.71;54378.97;5022859;28;20021;-72
2023/04/27 10:40:18;;;;;;;8.15;2.05;;;;;;;-144.73;54.42;54395.38;5008839;28;20116;-71
2023/04/27 10:42:44;;;;;;;7.70;2.55;;;;;;;-144.73;54.19;54383.06;5025937;28;20036;-71
2023/04/27 10:45:12;;;;;;;7.22;2.15;;;;;;;-144.73;56.42;54395.38;5025120;28;20121;-71
2023/04/27 10:47:41;;;;;;;8.18;2.80;;;;;;;-144.73;57.86;54374.84;5023795;28;20053;-71
2023/04/27 10:50:10;;;;;;;8.35;2.30;;;;;;;-144.73;58.89;54383.06;5003278;28;20034;-72
2023/04/27 10:52:42;;;;;;;7.80;2.58;;;;;;;-144.73;58.63;54407.69;5017914;28;20096;-72
2023/04/27 10:55:19;;;;;;;5.45;2.28;;;;;;;-144.73;58.12;54448.75;5004553;28;20068;-71
2023/04/27 10:57:54;;;;;;;5.18;2.20;;;;;;;-144.73;57.37;54342.03;5006330;28;20021;-71
2023/04/27 11:00:35;;;;;;;7.68;2.60;;;;;;;-144.73;58.06;54409.75;5025048;28;20563;-71
2023/04/27 11:03:15;;;;;;;8.68;2.78;;;;;;;-144.73;59.00;54387.19;5026341;28;20025;-71
2023/04/27 11:05:42;;;;;;;6.82;2.75;;;;;;;-144.73;58.48;54378.97;5019332;28;20157;-72